Ocean Ranger — CFN5098 — position and weather

sailwx.info

Track history (hours):
 
Tides and Currents Weather Stations Pressure Air Temp Water Temp Dewpoint Dewpoint Depression Visibility Wind Speed Wind Dir Waves Ship Positions

Ocean Ranger

Last reported at 2018-May-09 21:10 UTC. Time now 2018-May-24 02:28 UTC.
Position N 49°07' W 123°11'.
Warning: this ship's position is 14 days out of date.

Length 20 m.

Type: Fishing. MMSI: 316006786.

Date/timePositionNaut miles runAvg speedWind from/ knotsBaromVisibWave heightAir tempDewpointWater temp
2018-May-09 21:10N 49°07' W 123°11'0 0.0
2018-May-09 20:59N 49°07' W 123°11'0 0.0
2018-May-09 20:28N 49°07' W 123°11'0 0.0
2018-May-09 20:00N 49°07' W 123°11'0 0.0
2018-May-09 19:30N 49°07' W 123°11'0 0.0
2018-May-09 19:00N 49°07' W 123°11'0 0.0
2018-May-09 18:30N 49°07' W 123°11'0 0.0
2018-May-09 18:00N 49°07' W 123°11'0 0.0
2018-May-09 17:29N 49°07' W 123°11'0 0.0
2018-May-09 17:00N 49°07' W 123°11'0 0.0
2018-May-09 16:30N 49°07' W 123°11'0 0.0
2018-May-09 15:59N 49°07' W 123°11'0 0.5
2018-May-09 15:29N 49°07' W 123°12'3 5.2
2018-May-09 15:00N 49°07' W 123°16'3 5.2
2018-May-09 14:28N 49°06' W 123°20'6 9.3
2018-May-09 13:52N 49°09' W 123°27'5 9.0
2018-May-09 13:19N 49°12' W 123°33'7 8.8
2018-May-09 12:34N 49°15' W 123°43'27 9.2
2018-May-09 09:38N 49°26' W 124°20'5 8.7
2018-May-09 09:05N 49°28' W 124°26'2 8.9
2018-May-09 08:53N 49°29' W 124°29'4 9.2
2018-May-09 08:28N 49°32' W 124°33'4 9.2
2018-May-09 08:01N 49°35' W 124°38'5 9.1
2018-May-09 07:30N 49°38' W 124°43'4 9.0
2018-May-09 07:00N 49°42' W 124°47'5 9.0
2018-May-09 06:30N 49°45' W 124°52'5 9.5
2018-May-09 06:00N 49°48' W 124°57'5 9.2
2018-May-09 05:30N 49°52' W 125°02'5 9.0
2018-May-09 05:01N 49°55' W 125°06'510.4
2018-May-09 04:30N 49°59' W 125°12'612.7
2018-May-09 04:00N 50°05' W 125°16'611.2
2018-May-09 03:30N 50°09' W 125°21'5 9.8
2018-May-09 03:00N 50°14' W 125°23'5 9.3
2018-May-09 02:30N 50°18' W 125°25'29 8.4
2018-May-08 23:07N 50°28' W 126°08'1 9.3
2018-May-08 22:58N 50°28' W 126°10'12 8.5
2018-May-08 21:36N 50°29' W 126°28'1 8.7
2018-May-08 21:29N 50°30' W 126°29'4 8.4
2018-May-08 21:00N 50°31' W 126°36'6 8.3
2018-May-08 20:15N 50°33' W 126°45'2 8.5
2018-May-08 19:59N 50°33' W 126°48'4 8.4
2018-May-08 19:29N 50°34' W 126°55'4 8.5
2018-May-08 18:59N 50°36' W 127°01'4 8.5
2018-May-08 18:29N 50°37' W 127°07'5 8.7
2018-May-08 17:56N 50°39' W 127°14'4 8.7
2018-May-08 17:27N 50°43' W 127°18'4 9.4
2018-May-08 17:00N 50°45' W 127°23'3 6.3
2018-May-08 16:30N 50°44' W 127°28'1 1.5
2018-May-08 16:00N 50°43' W 127°28'0 0.0
2018-May-08 15:30N 50°43' W 127°28'0 0.0
2018-May-08 15:00N 50°43' W 127°28'0 0.0
2018-May-08 14:31N 50°43' W 127°28'0 0.0
2018-May-08 14:00N 50°43' W 127°28'0 0.0
2018-May-08 13:31N 50°43' W 127°28'0 0.0
2018-May-08 13:00N 50°43' W 127°28'0 0.0
2018-May-08 12:30N 50°43' W 127°28'0 0.0
2018-May-08 12:00N 50°43' W 127°28'0 0.0
2018-May-08 11:30N 50°43' W 127°28'0 0.0
2018-May-08 10:55N 50°43' W 127°28'0 0.0
2018-May-08 10:30N 50°43' W 127°28'0 0.0
2018-May-08 10:00N 50°43' W 127°28'0 0.0
2018-May-08 09:26N 50°43' W 127°28'0 0.0
2018-May-08 09:00N 50°43' W 127°28'0 0.0
2018-May-08 08:23N 50°43' W 127°28'0 0.0
2018-May-08 08:00N 50°43' W 127°28'0 0.0
2018-May-08 07:30N 50°43' W 127°28'0 0.0
2018-May-08 06:55N 50°43' W 127°28'0 0.0
2018-May-08 06:19N 50°43' W 127°28'0 0.0
2018-May-08 06:00N 50°43' W 127°28'0 0.0
2018-May-08 05:26N 50°43' W 127°28'0 0.0
2018-May-08 05:00N 50°43' W 127°28'0 0.0
2018-May-08 04:30N 50°43' W 127°28'0 0.1
2018-May-08 03:59N 50°43' W 127°28'0 0.1
2018-May-08 03:30N 50°43' W 127°28'0 0.0
2018-May-08 03:00N 50°43' W 127°28'0 0.0
2018-May-08 02:30N 50°43' W 127°28'0 0.1
2018-May-08 02:00N 50°43' W 127°28'1 1.4
2018-May-08 01:17N 50°43' W 127°29'2 7.6
2018-May-08 00:59N 50°45' W 127°29'510.1
2018-May-08 00:30N 50°50' W 127°30'510.3
2018-May-08 00:01N 50°55' W 127°33'510.2
2018-May-07 23:30N 50°59' W 127°36'5 9.8
2018-May-07 23:00N 51°03' W 127°41'5 9.2
2018-May-07 22:30N 51°07' W 127°46'5 9.5
2018-May-07 22:00N 51°11' W 127°50'1110.1
2018-May-07 20:53N 51°22' W 127°50'410.2
2018-May-07 20:28N 51°26' W 127°50'510.1
2018-May-07 20:00N 51°31' W 127°51'5 9.9
2018-May-07 19:31N 51°36' W 127°53'5 9.3
2018-May-07 19:01N 51°40' W 127°54'5 9.7
2018-May-07 18:30N 51°45' W 127°55'5 9.9
2018-May-07 18:00N 51°50' W 127°55'510.2
2018-May-07 17:30N 51°55' W 127°56'510.0
2018-May-07 17:00N 52°00' W 127°56'4 8.8
2018-May-07 16:31N 52°04' W 127°58'5 8.9
2018-May-07 16:00N 52°05' W 128°06'4 9.0
2018-May-07 15:30N 52°09' W 128°08'2 3.2
2018-May-07 14:57N 52°09' W 128°05'0 0.0
2018-May-07 12:08N 52°09' W 128°05'0 0.0
2018-May-07 12:00N 52°09' W 128°05'0 0.0
2018-May-07 11:30N 52°09' W 128°05'0 0.0
2018-May-07 10:59N 52°09' W 128°05'0 0.0
2018-May-07 10:30N 52°09' W 128°05'0 0.0
2018-May-07 10:00N 52°09' W 128°05'0 0.0
2018-May-07 09:30N 52°09' W 128°05'0 0.0
2018-May-07 09:00N 52°09' W 128°05'0 0.0
2018-May-07 08:30N 52°09' W 128°05'0 0.0
2018-May-07 08:00N 52°09' W 128°05'0 0.0
2018-May-07 07:30N 52°09' W 128°05'0 0.0
2018-May-07 07:00N 52°09' W 128°05'0 0.0
2018-May-07 06:30N 52°09' W 128°05'0 0.0
2018-May-07 06:00N 52°09' W 128°05'0 0.0
2018-May-07 05:28N 52°09' W 128°05'0 0.0
2018-May-07 05:00N 52°09' W 128°05'1 0.5
2018-May-07 03:40N 52°09' W 128°06'1 8.7
2018-May-07 03:30N 52°10' W 128°08'4 7.5
2018-May-07 03:00N 52°13' W 128°11'5 9.9
2018-May-07 02:30N 52°15' W 128°19'5 9.5
2018-May-07 01:56N 52°15' W 128°28'3 5.3
2018-May-07 01:27N 52°18' W 128°29'4 9.8
2018-May-07 01:00N 52°22' W 128°29'5 9.5
2018-May-07 00:30N 52°27' W 128°28'93 9.0
2018-May-06 14:08N 53°45' W 129°53'210.6
2018-May-06 13:56N 53°46' W 129°55'510.7
2018-May-06 13:30N 53°50' W 130°00'510.3
2018-May-06 13:00N 53°54' W 130°07'4 9.0
2018-May-06 12:30N 53°57' W 130°12'5 9.3
2018-May-06 12:01N 54°01' W 130°14'4 8.7
2018-May-06 11:31N 54°05' W 130°17'5 9.4
2018-May-06 11:00N 54°10' W 130°20'4 8.9
2018-May-06 10:30N 54°14' W 130°21'4 7.0
2018-May-06 10:00N 54°18' W 130°21'0 0.1
2018-May-06 09:30N 54°17' W 130°21'0 0.0
2018-May-06 09:00N 54°17' W 130°21'0 0.0
2018-May-06 08:30N 54°17' W 130°21'0 0.0
2018-May-06 08:00N 54°17' W 130°21'0 0.0
2018-May-06 07:30N 54°17' W 130°21'0 0.0
2018-May-06 07:00N 54°17' W 130°21'0 0.0
2018-May-06 06:30N 54°17' W 130°21'0 0.0
2018-May-06 06:00N 54°17' W 130°21'0 0.0
2018-May-06 05:30N 54°17' W 130°21'0 0.0
2018-May-06 05:00N 54°17' W 130°21'0 0.0
2018-May-06 04:30N 54°17' W 130°21'0 0.0
2018-May-06 04:00N 54°17' W 130°21'0 0.0
2018-May-06 03:30N 54°17' W 130°21'0 0.0
2018-May-06 03:00N 54°17' W 130°21'0 0.0
2018-May-06 02:30N 54°17' W 130°21'0 0.0
2018-May-06 02:00N 54°17' W 130°21'0 0.0
2018-May-06 01:30N 54°17' W 130°21'0 0.0
2018-May-06 01:00N 54°17' W 130°21'0 0.0
2018-May-06 00:30N 54°17' W 130°21'0 0.0
2018-May-06 00:00N 54°17' W 130°21'0 0.0
2018-May-05 23:30N 54°17' W 130°21'0 0.0
2018-May-05 23:00N 54°17' W 130°21'0 0.0
2018-May-05 22:30N 54°17' W 130°21'0 0.0
2018-May-05 22:00N 54°17' W 130°21'0 0.0
2018-May-05 21:30N 54°17' W 130°21'0 0.0
2018-May-05 21:00N 54°17' W 130°21'0 0.0
2018-May-05 19:20N 54°17' W 130°21'0 0.1
2018-May-05 18:58N 54°17' W 130°21'0 0.0
2018-May-05 18:16N 54°17' W 130°21'0 0.1
2018-May-05 17:59N 54°17' W 130°21'0 0.0
2018-May-05 17:29N 54°17' W 130°21'0 0.1
2018-May-05 16:59N 54°17' W 130°21'0 0.1
2018-May-05 16:30N 54°17' W 130°21'0 0.0
2018-May-05 16:00N 54°17' W 130°21'0 0.0
2018-May-05 15:30N 54°17' W 130°21'0 0.0
2018-May-05 15:00N 54°17' W 130°21'0 0.0
2018-May-05 14:30N 54°17' W 130°21'0 0.0
2018-May-05 14:00N 54°17' W 130°21'0 0.1
2018-May-05 13:30N 54°17' W 130°21'0 0.1
2018-May-05 12:59N 54°17' W 130°21'0 0.0
2018-May-05 12:30N 54°17' W 130°21'0 0.0
2018-May-05 11:59N 54°17' W 130°21'0 0.0
2018-May-05 11:30N 54°17' W 130°21'0 0.0
2018-May-05 11:00N 54°17' W 130°21'0 0.0
2018-May-05 10:30N 54°17' W 130°21'0 0.0
2018-May-05 09:59N 54°17' W 130°21'0 0.1
2018-May-05 09:30N 54°17' W 130°21'0 0.1
2018-May-05 09:00N 54°17' W 130°21'0 0.0
2018-May-05 08:30N 54°17' W 130°21'0 0.0
2018-May-05 08:00N 54°17' W 130°21'0 0.1
2018-May-05 07:30N 54°17' W 130°21'0 0.1
2018-May-05 07:00N 54°17' W 130°21'0 0.0
2018-May-05 06:30N 54°17' W 130°21'0 0.0
2018-May-05 05:59N 54°17' W 130°21'0 0.0
2018-May-05 05:30N 54°17' W 130°21'0 0.1
2018-May-05 05:00N 54°17' W 130°21'0 0.1
2018-May-05 04:29N 54°17' W 130°21'0 0.0
2018-May-05 04:00N 54°17' W 130°21'0 0.1
2018-May-05 03:30N 54°17' W 130°21'0 0.1
2018-May-05 03:00N 54°17' W 130°21'0 0.0
2018-May-05 02:30N 54°17' W 130°21'0 0.0
2018-May-05 02:00N 54°17' W 130°21'0 0.0
2018-May-05 01:29N 54°17' W 130°21'0 0.0
2018-May-05 01:00N 54°17' W 130°21'0 0.0
2018-May-05 00:27N 54°17' W 130°21'0 0.0
2018-May-04 23:58N 54°17' W 130°21'0 0.0
2018-May-04 23:29N 54°17' W 130°21'0 0.0
2018-May-04 23:00N 54°17' W 130°21'0 0.0
2018-May-04 22:30N 54°17' W 130°21'0 0.0
2018-May-04 22:00N 54°17' W 130°21'0 0.0
2018-May-04 21:30N 54°17' W 130°21'0 0.0
2018-May-04 21:00N 54°17' W 130°21'0 0.0
2018-May-04 20:30N 54°17' W 130°21'0 0.0
2018-May-04 20:00N 54°17' W 130°21'0 0.0
2018-May-04 19:30N 54°17' W 130°21'0 0.1
2018-May-04 19:00N 54°17' W 130°21'0 0.1
2018-May-04 18:30N 54°17' W 130°21'0 0.0
2018-May-04 18:00N 54°17' W 130°21'0 0.0
2018-May-04 17:30N 54°17' W 130°21'0 0.1
2018-May-04 16:59N 54°17' W 130°21'0 0.1
2018-May-04 16:30N 54°17' W 130°21'2 4.4
2018-May-04 16:00N 54°19' W 130°19'0 0.0
2018-May-04 15:30N 54°19' W 130°19'0 0.5
2018-May-04 15:00N 54°19' W 130°19'0 0.0
2018-May-04 14:30N 54°19' W 130°19'0 0.0
2018-May-04 14:00N 54°19' W 130°19'0 0.0
2018-May-04 13:30N 54°19' W 130°19'0 0.0
2018-May-04 13:00N 54°19' W 130°19'0 0.0
2018-May-04 12:30N 54°19' W 130°19'0 0.0
2018-May-04 12:00N 54°19' W 130°19'0 0.0
2018-May-04 11:30N 54°19' W 130°19'0 0.0
2018-May-04 11:00N 54°19' W 130°19'0 0.0
2018-May-04 10:30N 54°19' W 130°19'0 0.0
2018-May-04 10:00N 54°19' W 130°19'0 0.0
2018-May-04 09:30N 54°19' W 130°19'3 6.6
2018-May-04 09:00N 54°16' W 130°22'510.1
2018-May-04 08:30N 54°11' W 130°20'510.0
2018-May-04 08:00N 54°06' W 130°18'510.3
2018-May-04 07:30N 54°02' W 130°14'5 9.6
2018-May-04 07:00N 53°57' W 130°14'5 9.2
2018-May-04 06:30N 53°53' W 130°17'5 8.0
2018-May-04 05:51N 53°48' W 130°14'3 8.9
2018-May-04 05:30N 53°45' W 130°13'22 8.4
2018-May-04 02:51N 53°25' W 129°55'48 3.6
2018-May-03 13:23N 52°40' W 129°25'0 0.0
2018-May-03 12:57N 52°40' W 129°25'0 0.0
2018-May-03 11:36N 52°40' W 129°25'0 0.0
2018-May-03 11:30N 52°40' W 129°25'0 0.0
2018-May-03 09:31N 52°40' W 129°25'0 0.0
2018-May-03 09:05N 52°40' W 129°25'0 0.0
2018-May-03 08:55N 52°40' W 129°25'0 0.0
2018-May-03 08:14N 52°40' W 129°25'48 1.6
2018-May-02 02:36N 53°25' W 129°55'2210.2
2018-May-02 00:28N 53°43' W 130°13'510.6
2018-May-02 00:00N 53°48' W 130°15'5 9.4
2018-May-01 23:30N 53°53' W 130°18'510.4
2018-May-01 23:00N 53°57' W 130°13'5 9.3
2018-May-01 22:30N 54°02' W 130°14'4 9.0
2018-May-01 22:00N 54°06' W 130°18'5 9.8
2018-May-01 21:30N 54°10' W 130°20'5 9.3
2018-May-01 20:59N 54°15' W 130°21'2 4.8
2018-May-01 20:31N 54°17' W 130°21'0 0.0
2018-May-01 20:00N 54°17' W 130°21'0 0.0
2018-May-01 19:30N 54°17' W 130°21'0 0.0
2018-May-01 19:00N 54°17' W 130°21'0 0.0
2018-May-01 18:31N 54°17' W 130°21'0 0.0
2018-May-01 18:00N 54°17' W 130°21'0 0.0
2018-May-01 17:31N 54°17' W 130°21'0 0.0
2018-May-01 17:01N 54°17' W 130°21'0 0.0
2018-May-01 16:30N 54°17' W 130°21'0 0.1
2018-May-01 16:00N 54°17' W 130°21'2 4.4
2018-May-01 15:30N 54°19' W 130°19'0 0.0
2018-May-01 15:00N 54°19' W 130°19'0 0.0
2018-May-01 14:30N 54°19' W 130°19'0 0.0
2018-May-01 14:00N 54°19' W 130°19'0 0.0
2018-May-01 13:30N 54°19' W 130°19'0 0.0
2018-May-01 12:59N 54°19' W 130°19'0 0.0
2018-May-01 12:30N 54°19' W 130°19'0 0.2
2018-May-01 12:00N 54°19' W 130°19'0 0.5
2018-May-01 11:30N 54°19' W 130°19'0 0.0
2018-May-01 11:00N 54°19' W 130°19'0 0.0
2018-May-01 10:30N 54°19' W 130°19'0 0.0
2018-May-01 10:00N 54°19' W 130°19'0 0.0
2018-May-01 09:30N 54°19' W 130°19'0 0.0
2018-May-01 09:00N 54°19' W 130°19'0 0.0
2018-May-01 08:30N 54°19' W 130°19'0 0.0
2018-May-01 08:00N 54°19' W 130°19'0 0.0
2018-May-01 07:30N 54°19' W 130°19'0 0.0
2018-May-01 07:00N 54°19' W 130°19'2 4.2
2018-May-01 06:30N 54°17' W 130°22'510.8
2018-May-01 06:00N 54°12' W 130°21'510.6
2018-May-01 05:30N 54°07' W 130°18'510.0
2018-May-01 05:00N 54°03' W 130°15'510.2
2018-May-01 04:30N 53°58' W 130°13'5 9.2
2018-May-01 04:00N 53°53' W 130°17'4 8.6
2018-May-01 03:30N 53°49' W 130°17'4 8.7
2018-May-01 03:00N 53°45' W 130°13'  
Track history (hours):
 
Tides and Currents Weather Stations Pressure Air Temp Water Temp Dewpoint Dewpoint Depression Visibility Wind Speed Wind Dir Waves Ship Positions

Ocean Ranger

Last reported at 2018-May-09 21:10 UTC. Time now 2018-May-24 02:28 UTC.
Position N 49°07' W 123°11'.
Warning: this ship's position is 14 days out of date.

Length 20 m.

Type: Fishing. MMSI: 316006786.

Date/timePositionNaut miles runAvg speedWind from/ knotsBaromVisibWave heightAir tempDewpointWater temp
2018-May-09 21:10N 49°07' W 123°11'0 0.0
2018-May-09 20:59N 49°07' W 123°11'0 0.0
2018-May-09 20:28N 49°07' W 123°11'0 0.0
2018-May-09 20:00N 49°07' W 123°11'0 0.0
2018-May-09 19:30N 49°07' W 123°11'0 0.0
2018-May-09 19:00N 49°07' W 123°11'0 0.0
2018-May-09 18:30N 49°07' W 123°11'0 0.0
2018-May-09 18:00N 49°07' W 123°11'0 0.0
2018-May-09 17:29N 49°07' W 123°11'0 0.0
2018-May-09 17:00N 49°07' W 123°11'0 0.0
2018-May-09 16:30N 49°07' W 123°11'0 0.0
2018-May-09 15:59N 49°07' W 123°11'0 0.5
2018-May-09 15:29N 49°07' W 123°12'3 5.2
2018-May-09 15:00N 49°07' W 123°16'3 5.2
2018-May-09 14:28N 49°06' W 123°20'6 9.3
2018-May-09 13:52N 49°09' W 123°27'5 9.0
2018-May-09 13:19N 49°12' W 123°33'7 8.8
2018-May-09 12:34N 49°15' W 123°43'27 9.2
2018-May-09 09:38N 49°26' W 124°20'5 8.7
2018-May-09 09:05N 49°28' W 124°26'2 8.9
2018-May-09 08:53N 49°29' W 124°29'4 9.2
2018-May-09 08:28N 49°32' W 124°33'4 9.2
2018-May-09 08:01N 49°35' W 124°38'5 9.1
2018-May-09 07:30N 49°38' W 124°43'4 9.0
2018-May-09 07:00N 49°42' W 124°47'5 9.0
2018-May-09 06:30N 49°45' W 124°52'5 9.5
2018-May-09 06:00N 49°48' W 124°57'5 9.2
2018-May-09 05:30N 49°52' W 125°02'5 9.0
2018-May-09 05:01N 49°55' W 125°06'510.4
2018-May-09 04:30N 49°59' W 125°12'612.7
2018-May-09 04:00N 50°05' W 125°16'611.2
2018-May-09 03:30N 50°09' W 125°21'5 9.8
2018-May-09 03:00N 50°14' W 125°23'5 9.3
2018-May-09 02:30N 50°18' W 125°25'29 8.4
2018-May-08 23:07N 50°28' W 126°08'1 9.3
2018-May-08 22:58N 50°28' W 126°10'12 8.5
2018-May-08 21:36N 50°29' W 126°28'1 8.7
2018-May-08 21:29N 50°30' W 126°29'4 8.4
2018-May-08 21:00N 50°31' W 126°36'6 8.3
2018-May-08 20:15N 50°33' W 126°45'2 8.5
2018-May-08 19:59N 50°33' W 126°48'4 8.4
2018-May-08 19:29N 50°34' W 126°55'4 8.5
2018-May-08 18:59N 50°36' W 127°01'4 8.5
2018-May-08 18:29N 50°37' W 127°07'5 8.7
2018-May-08 17:56N 50°39' W 127°14'4 8.7
2018-May-08 17:27N 50°43' W 127°18'4 9.4
2018-May-08 17:00N 50°45' W 127°23'3 6.3
2018-May-08 16:30N 50°44' W 127°28'1 1.5
2018-May-08 16:00N 50°43' W 127°28'0 0.0
2018-May-08 15:30N 50°43' W 127°28'0 0.0
2018-May-08 15:00N 50°43' W 127°28'0 0.0
2018-May-08 14:31N 50°43' W 127°28'0 0.0
2018-May-08 14:00N 50°43' W 127°28'0 0.0
2018-May-08 13:31N 50°43' W 127°28'0 0.0
2018-May-08 13:00N 50°43' W 127°28'0 0.0
2018-May-08 12:30N 50°43' W 127°28'0 0.0
2018-May-08 12:00N 50°43' W 127°28'0 0.0
2018-May-08 11:30N 50°43' W 127°28'0 0.0
2018-May-08 10:55N 50°43' W 127°28'0 0.0
2018-May-08 10:30N 50°43' W 127°28'0 0.0
2018-May-08 10:00N 50°43' W 127°28'0 0.0
2018-May-08 09:26N 50°43' W 127°28'0 0.0
2018-May-08 09:00N 50°43' W 127°28'0 0.0
2018-May-08 08:23N 50°43' W 127°28'0 0.0
2018-May-08 08:00N 50°43' W 127°28'0 0.0
2018-May-08 07:30N 50°43' W 127°28'0 0.0
2018-May-08 06:55N 50°43' W 127°28'0 0.0
2018-May-08 06:19N 50°43' W 127°28'0 0.0
2018-May-08 06:00N 50°43' W 127°28'0 0.0
2018-May-08 05:26N 50°43' W 127°28'0 0.0
2018-May-08 05:00N 50°43' W 127°28'0 0.0
2018-May-08 04:30N 50°43' W 127°28'0 0.1
2018-May-08 03:59N 50°43' W 127°28'0 0.1
2018-May-08 03:30N 50°43' W 127°28'0 0.0
2018-May-08 03:00N 50°43' W 127°28'0 0.0
2018-May-08 02:30N 50°43' W 127°28'0 0.1
2018-May-08 02:00N 50°43' W 127°28'1 1.4
2018-May-08 01:17N 50°43' W 127°29'2 7.6
2018-May-08 00:59N 50°45' W 127°29'510.1
2018-May-08 00:30N 50°50' W 127°30'510.3
2018-May-08 00:01N 50°55' W 127°33'510.2
2018-May-07 23:30N 50°59' W 127°36'5 9.8
2018-May-07 23:00N 51°03' W 127°41'5 9.2
2018-May-07 22:30N 51°07' W 127°46'5 9.5
2018-May-07 22:00N 51°11' W 127°50'1110.1
2018-May-07 20:53N 51°22' W 127°50'410.2
2018-May-07 20:28N 51°26' W 127°50'510.1
2018-May-07 20:00N 51°31' W 127°51'5 9.9
2018-May-07 19:31N 51°36' W 127°53'5 9.3
2018-May-07 19:01N 51°40' W 127°54'5 9.7
2018-May-07 18:30N 51°45' W 127°55'5 9.9
2018-May-07 18:00N 51°50' W 127°55'510.2
2018-May-07 17:30N 51°55' W 127°56'510.0
2018-May-07 17:00N 52°00' W 127°56'4 8.8
2018-May-07 16:31N 52°04' W 127°58'5 8.9
2018-May-07 16:00N 52°05' W 128°06'4 9.0
2018-May-07 15:30N 52°09' W 128°08'2 3.2
2018-May-07 14:57N 52°09' W 128°05'0 0.0
2018-May-07 12:08N 52°09' W 128°05'0 0.0
2018-May-07 12:00N 52°09' W 128°05'0 0.0
2018-May-07 11:30N 52°09' W 128°05'0 0.0
2018-May-07 10:59N 52°09' W 128°05'0 0.0
2018-May-07 10:30N 52°09' W 128°05'0 0.0
2018-May-07 10:00N 52°09' W 128°05'0 0.0
2018-May-07 09:30N 52°09' W 128°05'0 0.0
2018-May-07 09:00N 52°09' W 128°05'0 0.0
2018-May-07 08:30N 52°09' W 128°05'0 0.0
2018-May-07 08:00N 52°09' W 128°05'0 0.0
2018-May-07 07:30N 52°09' W 128°05'0 0.0
2018-May-07 07:00N 52°09' W 128°05'0 0.0
2018-May-07 06:30N 52°09' W 128°05'0 0.0
2018-May-07 06:00N 52°09' W 128°05'0 0.0
2018-May-07 05:28N 52°09' W 128°05'0 0.0
2018-May-07 05:00N 52°09' W 128°05'1 0.5
2018-May-07 03:40N 52°09' W 128°06'1 8.7
2018-May-07 03:30N 52°10' W 128°08'4 7.5
2018-May-07 03:00N 52°13' W 128°11'5 9.9
2018-May-07 02:30N 52°15' W 128°19'5 9.5
2018-May-07 01:56N 52°15' W 128°28'3 5.3
2018-May-07 01:27N 52°18' W 128°29'4 9.8
2018-May-07 01:00N 52°22' W 128°29'5 9.5
2018-May-07 00:30N 52°27' W 128°28'93 9.0
2018-May-06 14:08N 53°45' W 129°53'210.6
2018-May-06 13:56N 53°46' W 129°55'510.7
2018-May-06 13:30N 53°50' W 130°00'510.3
2018-May-06 13:00N 53°54' W 130°07'4 9.0
2018-May-06 12:30N 53°57' W 130°12'5 9.3
2018-May-06 12:01N 54°01' W 130°14'4 8.7
2018-May-06 11:31N 54°05' W 130°17'5 9.4
2018-May-06 11:00N 54°10' W 130°20'4 8.9
2018-May-06 10:30N 54°14' W 130°21'4 7.0
2018-May-06 10:00N 54°18' W 130°21'0 0.1
2018-May-06 09:30N 54°17' W 130°21'0 0.0
2018-May-06 09:00N 54°17' W 130°21'0 0.0
2018-May-06 08:30N 54°17' W 130°21'0 0.0
2018-May-06 08:00N 54°17' W 130°21'0 0.0
2018-May-06 07:30N 54°17' W 130°21'0 0.0
2018-May-06 07:00N 54°17' W 130°21'0 0.0
2018-May-06 06:30N 54°17' W 130°21'0 0.0
2018-May-06 06:00N 54°17' W 130°21'0 0.0
2018-May-06 05:30N 54°17' W 130°21'0 0.0
2018-May-06 05:00N 54°17' W 130°21'0 0.0
2018-May-06 04:30N 54°17' W 130°21'0 0.0
2018-May-06 04:00N 54°17' W 130°21'0 0.0
2018-May-06 03:30N 54°17' W 130°21'0 0.0
2018-May-06 03:00N 54°17' W 130°21'0 0.0
2018-May-06 02:30N 54°17' W 130°21'0 0.0
2018-May-06 02:00N 54°17' W 130°21'0 0.0
2018-May-06 01:30N 54°17' W 130°21'0 0.0
2018-May-06 01:00N 54°17' W 130°21'0 0.0
2018-May-06 00:30N 54°17' W 130°21'0 0.0
2018-May-06 00:00N 54°17' W 130°21'0 0.0
2018-May-05 23:30N 54°17' W 130°21'0 0.0
2018-May-05 23:00N 54°17' W 130°21'0 0.0
2018-May-05 22:30N 54°17' W 130°21'0 0.0
2018-May-05 22:00N 54°17' W 130°21'0 0.0
2018-May-05 21:30N 54°17' W 130°21'0 0.0
2018-May-05 21:00N 54°17' W 130°21'0 0.0
2018-May-05 19:20N 54°17' W 130°21'0 0.1
2018-May-05 18:58N 54°17' W 130°21'0 0.0
2018-May-05 18:16N 54°17' W 130°21'0 0.1
2018-May-05 17:59N 54°17' W 130°21'0 0.0
2018-May-05 17:29N 54°17' W 130°21'0 0.1
2018-May-05 16:59N 54°17' W 130°21'0 0.1
2018-May-05 16:30N 54°17' W 130°21'0 0.0
2018-May-05 16:00N 54°17' W 130°21'0 0.0
2018-May-05 15:30N 54°17' W 130°21'0 0.0
2018-May-05 15:00N 54°17' W 130°21'0 0.0
2018-May-05 14:30N 54°17' W 130°21'0 0.0
2018-May-05 14:00N 54°17' W 130°21'0 0.1
2018-May-05 13:30N 54°17' W 130°21'0 0.1
2018-May-05 12:59N 54°17' W 130°21'0 0.0
2018-May-05 12:30N 54°17' W 130°21'0 0.0
2018-May-05 11:59N 54°17' W 130°21'0 0.0
2018-May-05 11:30N 54°17' W 130°21'0 0.0
2018-May-05 11:00N 54°17' W 130°21'0 0.0
2018-May-05 10:30N 54°17' W 130°21'0 0.0
2018-May-05 09:59N 54°17' W 130°21'0 0.1
2018-May-05 09:30N 54°17' W 130°21'0 0.1
2018-May-05 09:00N 54°17' W 130°21'0 0.0
2018-May-05 08:30N 54°17' W 130°21'0 0.0
2018-May-05 08:00N 54°17' W 130°21'0 0.1
2018-May-05 07:30N 54°17' W 130°21'0 0.1
2018-May-05 07:00N 54°17' W 130°21'0 0.0
2018-May-05 06:30N 54°17' W 130°21'0 0.0
2018-May-05 05:59N 54°17' W 130°21'0 0.0
2018-May-05 05:30N 54°17' W 130°21'0 0.1
2018-May-05 05:00N 54°17' W 130°21'0 0.1
2018-May-05 04:29N 54°17' W 130°21'0 0.0
2018-May-05 04:00N 54°17' W 130°21'0 0.1
2018-May-05 03:30N 54°17' W 130°21'0 0.1
2018-May-05 03:00N 54°17' W 130°21'0 0.0
2018-May-05 02:30N 54°17' W 130°21'0 0.0
2018-May-05 02:00N 54°17' W 130°21'0 0.0
2018-May-05 01:29N 54°17' W 130°21'0 0.0
2018-May-05 01:00N 54°17' W 130°21'0 0.0
2018-May-05 00:27N 54°17' W 130°21'0 0.0
2018-May-04 23:58N 54°17' W 130°21'0 0.0
2018-May-04 23:29N 54°17' W 130°21'0 0.0
2018-May-04 23:00N 54°17' W 130°21'0 0.0
2018-May-04 22:30N 54°17' W 130°21'0 0.0
2018-May-04 22:00N 54°17' W 130°21'0 0.0
2018-May-04 21:30N 54°17' W 130°21'0 0.0
2018-May-04 21:00N 54°17' W 130°21'0 0.0
2018-May-04 20:30N 54°17' W 130°21'0 0.0
2018-May-04 20:00N 54°17' W 130°21'0 0.0
2018-May-04 19:30N 54°17' W 130°21'0 0.1
2018-May-04 19:00N 54°17' W 130°21'0 0.1
2018-May-04 18:30N 54°17' W 130°21'0 0.0
2018-May-04 18:00N 54°17' W 130°21'0 0.0
2018-May-04 17:30N 54°17' W 130°21'0 0.1
2018-May-04 16:59N 54°17' W 130°21'0 0.1
2018-May-04 16:30N 54°17' W 130°21'2 4.4
2018-May-04 16:00N 54°19' W 130°19'0 0.0
2018-May-04 15:30N 54°19' W 130°19'0 0.5
2018-May-04 15:00N 54°19' W 130°19'0 0.0
2018-May-04 14:30N 54°19' W 130°19'0 0.0
2018-May-04 14:00N 54°19' W 130°19'0 0.0
2018-May-04 13:30N 54°19' W 130°19'0 0.0
2018-May-04 13:00N 54°19' W 130°19'0 0.0
2018-May-04 12:30N 54°19' W 130°19'0 0.0
2018-May-04 12:00N 54°19' W 130°19'0 0.0
2018-May-04 11:30N 54°19' W 130°19'0 0.0
2018-May-04 11:00N 54°19' W 130°19'0 0.0
2018-May-04 10:30N 54°19' W 130°19'0 0.0
2018-May-04 10:00N 54°19' W 130°19'0 0.0
2018-May-04 09:30N 54°19' W 130°19'3 6.6
2018-May-04 09:00N 54°16' W 130°22'510.1
2018-May-04 08:30N 54°11' W 130°20'510.0
2018-May-04 08:00N 54°06' W 130°18'510.3
2018-May-04 07:30N 54°02' W 130°14'5 9.6
2018-May-04 07:00N 53°57' W 130°14'5 9.2
2018-May-04 06:30N 53°53' W 130°17'5 8.0
2018-May-04 05:51N 53°48' W 130°14'3 8.9
2018-May-04 05:30N 53°45' W 130°13'22 8.4
2018-May-04 02:51N 53°25' W 129°55'48 3.6
2018-May-03 13:23N 52°40' W 129°25'0 0.0
2018-May-03 12:57N 52°40' W 129°25'0 0.0
2018-May-03 11:36N 52°40' W 129°25'0 0.0
2018-May-03 11:30N 52°40' W 129°25'0 0.0
2018-May-03 09:31N 52°40' W 129°25'0 0.0
2018-May-03 09:05N 52°40' W 129°25'0 0.0
2018-May-03 08:55N 52°40' W 129°25'0 0.0
2018-May-03 08:14N 52°40' W 129°25'48 1.6
2018-May-02 02:36N 53°25' W 129°55'2210.2
2018-May-02 00:28N 53°43' W 130°13'510.6
2018-May-02 00:00N 53°48' W 130°15'5 9.4
2018-May-01 23:30N 53°53' W 130°18'510.4
2018-May-01 23:00N 53°57' W 130°13'5 9.3
2018-May-01 22:30N 54°02' W 130°14'4 9.0
2018-May-01 22:00N 54°06' W 130°18'5 9.8
2018-May-01 21:30N 54°10' W 130°20'5 9.3
2018-May-01 20:59N 54°15' W 130°21'2 4.8
2018-May-01 20:31N 54°17' W 130°21'0 0.0
2018-May-01 20:00N 54°17' W 130°21'0 0.0
2018-May-01 19:30N 54°17' W 130°21'0 0.0
2018-May-01 19:00N 54°17' W 130°21'0 0.0
2018-May-01 18:31N 54°17' W 130°21'0 0.0
2018-May-01 18:00N 54°17' W 130°21'0 0.0
2018-May-01 17:31N 54°17' W 130°21'0 0.0
2018-May-01 17:01N 54°17' W 130°21'0 0.0
2018-May-01 16:30N 54°17' W 130°21'0 0.1
2018-May-01 16:00N 54°17' W 130°21'2 4.4
2018-May-01 15:30N 54°19' W 130°19'0 0.0
2018-May-01 15:00N 54°19' W 130°19'0 0.0
2018-May-01 14:30N 54°19' W 130°19'0 0.0
2018-May-01 14:00N 54°19' W 130°19'0 0.0
2018-May-01 13:30N 54°19' W 130°19'0 0.0
2018-May-01 12:59N 54°19' W 130°19'0 0.0
2018-May-01 12:30N 54°19' W 130°19'0 0.2
2018-May-01 12:00N 54°19' W 130°19'0 0.5
2018-May-01 11:30N 54°19' W 130°19'0 0.0
2018-May-01 11:00N 54°19' W 130°19'0 0.0
2018-May-01 10:30N 54°19' W 130°19'0 0.0
2018-May-01 10:00N 54°19' W 130°19'0 0.0
2018-May-01 09:30N 54°19' W 130°19'0 0.0
2018-May-01 09:00N 54°19' W 130°19'0 0.0
2018-May-01 08:30N 54°19' W 130°19'0 0.0
2018-May-01 08:00N 54°19' W 130°19'0 0.0
2018-May-01 07:30N 54°19' W 130°19'0 0.0
2018-May-01 07:00N 54°19' W 130°19'2 4.2
2018-May-01 06:30N 54°17' W 130°22'510.8
2018-May-01 06:00N 54°12' W 130°21'510.6
2018-May-01 05:30N 54°07' W 130°18'510.0
2018-May-01 05:00N 54°03' W 130°15'510.2
2018-May-01 04:30N 53°58' W 130°13'5 9.2
2018-May-01 04:00N 53°53' W 130°17'4 8.6
2018-May-01 03:30N 53°49' W 130°17'4 8.7
2018-May-01 03:00N 53°45' W 130°13'  

Dump ship's entire track history